sensor_id;sensor_type;location;lat;lon;timestamp;P1;durP1;ratioP1;P2;durP2;ratioP2
3847;SDS011;1939;48.720;9.166;2023-06-10T00:01:18;10.60;;;8.00;;
3847;SDS011;1939;48.720;9.166;2023-06-10T00:03:43;9.63;;;8.07;;
3847;SDS011;1939;48.720;9.166;2023-06-10T00:06:08;9.20;;;8.17;;
3847;SDS011;1939;48.720;9.166;2023-06-10T00:08:33;9.97;;;8.30;;
3847;SDS011;1939;48.720;9.166;2023-06-10T00:10:59;8.93;;;8.00;;
3847;SDS011;1939;48.720;9.166;2023-06-10T00:13:24;12.00;;;8.90;;
3847;SDS011;1939;48.720;9.166;2023-06-10T00:15:50;10.40;;;8.97;;
3847;SDS011;1939;48.720;9.166;2023-06-10T00:18:15;9.70;;;8.70;;
3847;SDS011;1939;48.720;9.166;2023-06-10T00:20:40;10.90;;;8.40;;
3847;SDS011;1939;48.720;9.166;2023-06-10T00:23:05;13.40;;;9.30;;
3847;SDS011;1939;48.720;9.166;2023-06-10T00:25:33;14.03;;;8.83;;
3847;SDS011;1939;48.720;9.166;2023-06-10T00:27:58;11.70;;;8.70;;
3847;SDS011;1939;48.720;9.166;2023-06-10T00:30:24;12.37;;;8.60;;
3847;SDS011;1939;48.720;9.166;2023-06-10T00:32:49;9.17;;;8.17;;
3847;SDS011;1939;48.720;9.166;2023-06-10T00:35:14;10.00;;;9.00;;
3847;SDS011;1939;48.720;9.166;2023-06-10T00:37:39;10.17;;;9.17;;
3847;SDS011;1939;48.720;9.166;2023-06-10T00:40:05;11.17;;;8.87;;
3847;SDS011;1939;48.720;9.166;2023-06-10T00:42:30;9.90;;;8.77;;
3847;SDS011;1939;48.720;9.166;2023-06-10T00:44:55;9.83;;;8.80;;
3847;SDS011;1939;48.720;9.166;2023-06-10T00:47:21;11.63;;;8.77;;
3847;SDS011;1939;48.720;9.166;2023-06-10T00:49:46;10.13;;;9.10;;
3847;SDS011;1939;48.720;9.166;2023-06-10T00:52:12;9.30;;;8.23;;
3847;SDS011;1939;48.720;9.166;2023-06-10T00:54:38;10.30;;;8.73;;
3847;SDS011;1939;48.720;9.166;2023-06-10T00:57:04;8.00;;;7.30;;
3847;SDS011;1939;48.720;9.166;2023-06-10T00:59:30;10.13;;;8.97;;
3847;SDS011;1939;48.720;9.166;2023-06-10T01:01:58;10.63;;;8.97;;
3847;SDS011;1939;48.720;9.166;2023-06-10T01:04:24;8.80;;;7.90;;
3847;SDS011;1939;48.720;9.166;2023-06-10T01:06:58;11.17;;;9.00;;
3847;SDS011;1939;48.720;9.166;2023-06-10T01:12:26;9.47;;;8.43;;
3847;SDS011;1939;48.720;9.166;2023-06-10T01:14:54;10.80;;;8.83;;
3847;SDS011;1939;48.720;9.166;2023-06-10T01:17:19;9.13;;;7.73;;
3847;SDS011;1939;48.720;9.166;2023-06-10T01:19:52;11.87;;;9.37;;
3847;SDS011;1939;48.720;9.166;2023-06-10T01:22:18;11.03;;;8.30;;
3847;SDS011;1939;48.720;9.166;2023-06-10T01:24:43;12.43;;;8.27;;
3847;SDS011;1939;48.720;9.166;2023-06-10T01:30:12;16.70;;;9.20;;
3847;SDS011;1939;48.720;9.166;2023-06-10T01:32:42;13.43;;;10.40;;
3847;SDS011;1939;48.720;9.166;2023-06-10T01:35:08;12.03;;;8.77;;
3847;SDS011;1939;48.720;9.166;2023-06-10T01:37:34;10.53;;;9.20;;
3847;SDS011;1939;48.720;9.166;2023-06-10T01:40:00;9.80;;;8.10;;
3847;SDS011;1939;48.720;9.166;2023-06-10T01:42:27;13.30;;;8.17;;
3847;SDS011;1939;48.720;9.166;2023-06-10T01:44:53;11.60;;;8.53;;
3847;SDS011;1939;48.720;9.166;2023-06-10T01:47:18;10.07;;;8.30;;
3847;SDS011;1939;48.720;9.166;2023-06-10T01:49:43;12.17;;;10.10;;
3847;SDS011;1939;48.720;9.166;2023-06-10T01:52:08;10.13;;;8.30;;
3847;SDS011;1939;48.720;9.166;2023-06-10T01:54:34;10.60;;;8.77;;
3847;SDS011;1939;48.720;9.166;2023-06-10T01:57:02;11.00;;;8.60;;
3847;SDS011;1939;48.720;9.166;2023-06-10T01:59:27;10.60;;;9.03;;
3847;SDS011;1939;48.720;9.166;2023-06-10T02:01:52;9.60;;;8.30;;
3847;SDS011;1939;48.720;9.166;2023-06-10T02:04:18;11.37;;;9.40;;
3847;SDS011;1939;48.720;9.166;2023-06-10T02:06:43;9.37;;;8.37;;
3847;SDS011;1939;48.720;9.166;2023-06-10T02:09:08;8.80;;;7.60;;
3847;SDS011;1939;48.720;9.166;2023-06-10T02:11:34;10.07;;;8.97;;
3847;SDS011;1939;48.720;9.166;2023-06-10T02:13:59;11.80;;;9.73;;
3847;SDS011;1939;48.720;9.166;2023-06-10T02:16:24;10.57;;;9.10;;
3847;SDS011;1939;48.720;9.166;2023-06-10T02:18:50;12.47;;;10.03;;
3847;SDS011;1939;48.720;9.166;2023-06-10T02:21:15;23.20;;;8.87;;
3847;SDS011;1939;48.720;9.166;2023-06-10T02:23:40;11.37;;;9.00;;
3847;SDS011;1939;48.720;9.166;2023-06-10T02:26:06;14.47;;;9.00;;
3847;SDS011;1939;48.720;9.166;2023-06-10T02:28:31;12.30;;;8.70;;
3847;SDS011;1939;48.720;9.166;2023-06-10T02:30:56;8.83;;;7.93;;
3847;SDS011;1939;48.720;9.166;2023-06-10T02:33:22;11.90;;;8.50;;
3847;SDS011;1939;48.720;9.166;2023-06-10T02:35:48;13.83;;;8.50;;
3847;SDS011;1939;48.720;9.166;2023-06-10T02:38:13;9.80;;;8.80;;
3847;SDS011;1939;48.720;9.166;2023-06-10T02:40:38;9.63;;;8.73;;
3847;SDS011;1939;48.720;9.166;2023-06-10T02:43:03;12.73;;;8.93;;
3847;SDS011;1939;48.720;9.166;2023-06-10T02:45:29;10.07;;;8.77;;
3847;SDS011;1939;48.720;9.166;2023-06-10T02:47:54;11.53;;;9.07;;
3847;SDS011;1939;48.720;9.166;2023-06-10T02:50:19;11.70;;;10.33;;
3847;SDS011;1939;48.720;9.166;2023-06-10T02:52:45;12.53;;;9.43;;
3847;SDS011;1939;48.720;9.166;2023-06-10T02:55:10;10.27;;;9.17;;
3847;SDS011;1939;48.720;9.166;2023-06-10T02:57:35;15.17;;;10.20;;
3847;SDS011;1939;48.720;9.166;2023-06-10T03:00:01;10.57;;;8.13;;
3847;SDS011;1939;48.720;9.166;2023-06-10T03:02:27;10.03;;;9.03;;
3847;SDS011;1939;48.720;9.166;2023-06-10T03:04:56;14.77;;;9.63;;
3847;SDS011;1939;48.720;9.166;2023-06-10T03:07:22;11.77;;;8.90;;
3847;SDS011;1939;48.720;9.166;2023-06-10T03:09:48;11.87;;;10.67;;
3847;SDS011;1939;48.720;9.166;2023-06-10T03:12:13;11.20;;;8.50;;
3847;SDS011;1939;48.720;9.166;2023-06-10T03:14:38;11.37;;;9.10;;
3847;SDS011;1939;48.720;9.166;2023-06-10T03:17:04;10.83;;;8.50;;
3847;SDS011;1939;48.720;9.166;2023-06-10T03:19:29;9.20;;;8.00;;
3847;SDS011;1939;48.720;9.166;2023-06-10T03:22:08;10.77;;;8.90;;
3847;SDS011;1939;48.720;9.166;2023-06-10T03:24:34;11.50;;;9.20;;
3847;SDS011;1939;48.720;9.166;2023-06-10T03:27:00;9.77;;;8.50;;
3847;SDS011;1939;48.720;9.166;2023-06-10T03:29:26;14.20;;;9.77;;
3847;SDS011;1939;48.720;9.166;2023-06-10T03:31:51;9.17;;;7.97;;
3847;SDS011;1939;48.720;9.166;2023-06-10T03:34:16;10.50;;;9.40;;
3847;SDS011;1939;48.720;9.166;2023-06-10T03:36:41;13.27;;;9.90;;
3847;SDS011;1939;48.720;9.166;2023-06-10T03:39:07;9.43;;;8.20;;
3847;SDS011;1939;48.720;9.166;2023-06-10T03:41:33;11.53;;;9.27;;
3847;SDS011;1939;48.720;9.166;2023-06-10T03:43:58;12.57;;;9.33;;
3847;SDS011;1939;48.720;9.166;2023-06-10T03:46:23;11.03;;;8.30;;
3847;SDS011;1939;48.720;9.166;2023-06-10T03:48:48;10.87;;;8.90;;
3847;SDS011;1939;48.720;9.166;2023-06-10T03:51:14;14.80;;;8.30;;
3847;SDS011;1939;48.720;9.166;2023-06-10T03:53:40;10.60;;;9.50;;
3847;SDS011;1939;48.720;9.166;2023-06-10T03:56:05;12.33;;;8.50;;
3847;SDS011;1939;48.720;9.166;2023-06-10T03:58:30;11.10;;;7.80;;
3847;SDS011;1939;48.720;9.166;2023-06-10T04:00:55;13.90;;;7.23;;
3847;SDS011;1939;48.720;9.166;2023-06-10T04:03:21;9.40;;;8.10;;
3847;SDS011;1939;48.720;9.166;2023-06-10T04:05:46;9.53;;;8.60;;
3847;SDS011;1939;48.720;9.166;2023-06-10T04:08:11;9.80;;;8.57;;
3847;SDS011;1939;48.720;9.166;2023-06-10T04:10:37;13.07;;;8.83;;
3847;SDS011;1939;48.720;9.166;2023-06-10T04:13:02;10.10;;;8.80;;
3847;SDS011;1939;48.720;9.166;2023-06-10T04:15:28;9.90;;;7.97;;
3847;SDS011;1939;48.720;9.166;2023-06-10T04:17:53;11.30;;;8.10;;
3847;SDS011;1939;48.720;9.166;2023-06-10T04:20:18;10.37;;;8.43;;
3847;SDS011;1939;48.720;9.166;2023-06-10T04:22:43;10.23;;;6.60;;
3847;SDS011;1939;48.720;9.166;2023-06-10T04:25:09;9.47;;;8.00;;
3847;SDS011;1939;48.720;9.166;2023-06-10T04:27:35;8.77;;;7.57;;
3847;SDS011;1939;48.720;9.166;2023-06-10T04:30:00;10.40;;;8.57;;
3847;SDS011;1939;48.720;9.166;2023-06-10T04:32:25;8.40;;;7.10;;
3847;SDS011;1939;48.720;9.166;2023-06-10T04:34:51;10.93;;;7.50;;
3847;SDS011;1939;48.720;9.166;2023-06-10T04:37:17;8.60;;;7.70;;
3847;SDS011;1939;48.720;9.166;2023-06-10T04:39:43;8.23;;;6.53;;
3847;SDS011;1939;48.720;9.166;2023-06-10T04:42:08;8.67;;;7.07;;
3847;SDS011;1939;48.720;9.166;2023-06-10T04:44:33;9.47;;;6.90;;
3847;SDS011;1939;48.720;9.166;2023-06-10T04:46:59;7.50;;;5.93;;
3847;SDS011;1939;48.720;9.166;2023-06-10T04:49:24;7.57;;;6.70;;
3847;SDS011;1939;48.720;9.166;2023-06-10T04:51:49;8.57;;;6.77;;
3847;SDS011;1939;48.720;9.166;2023-06-10T04:54:16;10.60;;;8.50;;
3847;SDS011;1939;48.720;9.166;2023-06-10T04:56:41;7.33;;;6.60;;
3847;SDS011;1939;48.720;9.166;2023-06-10T04:59:06;9.10;;;6.53;;
3847;SDS011;1939;48.720;9.166;2023-06-10T05:01:32;8.60;;;7.30;;
3847;SDS011;1939;48.720;9.166;2023-06-10T05:03:57;9.40;;;7.40;;
3847;SDS011;1939;48.720;9.166;2023-06-10T05:06:22;9.30;;;7.20;;
3847;SDS011;1939;48.720;9.166;2023-06-10T05:08:47;8.90;;;7.50;;
3847;SDS011;1939;48.720;9.166;2023-06-10T05:11:12;9.90;;;7.23;;
3847;SDS011;1939;48.720;9.166;2023-06-10T05:13:38;8.03;;;6.43;;
3847;SDS011;1939;48.720;9.166;2023-06-10T05:16:05;8.60;;;6.90;;
3847;SDS011;1939;48.720;9.166;2023-06-10T05:18:30;8.90;;;7.40;;
3847;SDS011;1939;48.720;9.166;2023-06-10T05:20:56;9.10;;;7.27;;
3847;SDS011;1939;48.720;9.166;2023-06-10T05:23:21;11.00;;;5.90;;
3847;SDS011;1939;48.720;9.166;2023-06-10T05:25:46;8.50;;;7.60;;
3847;SDS011;1939;48.720;9.166;2023-06-10T05:28:12;7.20;;;6.40;;
3847;SDS011;1939;48.720;9.166;2023-06-10T05:30:38;7.37;;;6.57;;
3847;SDS011;1939;48.720;9.166;2023-06-10T05:33:04;7.83;;;6.77;;
3847;SDS011;1939;48.720;9.166;2023-06-10T05:35:29;6.17;;;5.43;;
3847;SDS011;1939;48.720;9.166;2023-06-10T05:37:54;7.50;;;6.30;;
3847;SDS011;1939;48.720;9.166;2023-06-10T05:40:20;10.20;;;7.30;;
3847;SDS011;1939;48.720;9.166;2023-06-10T05:42:45;13.80;;;6.40;;
3847;SDS011;1939;48.720;9.166;2023-06-10T05:45:10;8.47;;;6.50;;
3847;SDS011;1939;48.720;9.166;2023-06-10T05:47:35;9.83;;;7.07;;
3847;SDS011;1939;48.720;9.166;2023-06-10T05:50:01;7.13;;;6.10;;
3847;SDS011;1939;48.720;9.166;2023-06-10T05:52:26;7.67;;;6.20;;
3847;SDS011;1939;48.720;9.166;2023-06-10T05:54:51;8.30;;;6.43;;
3847;SDS011;1939;48.720;9.166;2023-06-10T05:57:16;7.63;;;6.83;;
3847;SDS011;1939;48.720;9.166;2023-06-10T05:59:42;7.70;;;6.50;;
3847;SDS011;1939;48.720;9.166;2023-06-10T06:02:07;7.80;;;6.40;;
3847;SDS011;1939;48.720;9.166;2023-06-10T06:04:33;6.70;;;6.10;;
3847;SDS011;1939;48.720;9.166;2023-06-10T06:06:58;7.50;;;6.50;;
3847;SDS011;1939;48.720;9.166;2023-06-10T06:09:23;7.60;;;6.33;;
3847;SDS011;1939;48.720;9.166;2023-06-10T06:11:49;6.77;;;5.63;;
3847;SDS011;1939;48.720;9.166;2023-06-10T06:14:14;6.73;;;6.03;;
3847;SDS011;1939;48.720;9.166;2023-06-10T06:16:39;6.80;;;6.10;;
3847;SDS011;1939;48.720;9.166;2023-06-10T06:19:05;5.63;;;5.03;;
3847;SDS011;1939;48.720;9.166;2023-06-10T06:21:30;5.60;;;5.20;;
3847;SDS011;1939;48.720;9.166;2023-06-10T06:23:55;5.43;;;5.03;;
3847;SDS011;1939;48.720;9.166;2023-06-10T06:26:21;5.33;;;4.93;;
3847;SDS011;1939;48.720;9.166;2023-06-10T06:28:46;4.80;;;4.37;;
3847;SDS011;1939;48.720;9.166;2023-06-10T06:31:11;5.47;;;5.07;;
3847;SDS011;1939;48.720;9.166;2023-06-10T06:33:36;4.60;;;4.20;;
3847;SDS011;1939;48.720;9.166;2023-06-10T06:36:02;5.37;;;4.70;;
3847;SDS011;1939;48.720;9.166;2023-06-10T06:38:27;4.53;;;4.13;;
3847;SDS011;1939;48.720;9.166;2023-06-10T06:40:52;6.87;;;4.20;;
3847;SDS011;1939;48.720;9.166;2023-06-10T06:43:17;5.20;;;4.80;;
3847;SDS011;1939;48.720;9.166;2023-06-10T06:45:43;4.47;;;4.17;;
3847;SDS011;1939;48.720;9.166;2023-06-10T06:48:09;4.73;;;4.33;;
3847;SDS011;1939;48.720;9.166;2023-06-10T06:50:34;6.03;;;4.80;;
3847;SDS011;1939;48.720;9.166;2023-06-10T06:52:59;4.83;;;4.43;;
3847;SDS011;1939;48.720;9.166;2023-06-10T06:55:25;4.97;;;4.47;;
3847;SDS011;1939;48.720;9.166;2023-06-10T06:57:50;6.17;;;4.67;;
3847;SDS011;1939;48.720;9.166;2023-06-10T07:00:15;5.43;;;4.93;;
3847;SDS011;1939;48.720;9.166;2023-06-10T07:02:40;4.20;;;3.90;;
3847;SDS011;1939;48.720;9.166;2023-06-10T07:05:06;4.40;;;4.00;;
3847;SDS011;1939;48.720;9.166;2023-06-10T07:07:32;5.60;;;5.10;;
3847;SDS011;1939;48.720;9.166;2023-06-10T07:09:57;9.50;;;4.90;;
3847;SDS011;1939;48.720;9.166;2023-06-10T07:12:22;5.30;;;4.80;;
3847;SDS011;1939;48.720;9.166;2023-06-10T07:14:49;5.30;;;3.90;;
3847;SDS011;1939;48.720;9.166;2023-06-10T07:17:14;4.97;;;4.57;;
3847;SDS011;1939;48.720;9.166;2023-06-10T07:19:40;5.87;;;5.37;;
3847;SDS011;1939;48.720;9.166;2023-06-10T07:22:05;5.33;;;4.93;;
3847;SDS011;1939;48.720;9.166;2023-06-10T07:24:30;5.67;;;4.90;;
3847;SDS011;1939;48.720;9.166;2023-06-10T07:26:55;6.27;;;5.40;;
3847;SDS011;1939;48.720;9.166;2023-06-10T07:29:21;5.27;;;4.77;;
3847;SDS011;1939;48.720;9.166;2023-06-10T07:31:46;5.73;;;5.33;;
3847;SDS011;1939;48.720;9.166;2023-06-10T07:34:11;5.03;;;4.43;;
3847;SDS011;1939;48.720;9.166;2023-06-10T07:36:36;5.47;;;4.97;;
3847;SDS011;1939;48.720;9.166;2023-06-10T07:39:02;5.27;;;3.80;;
3847;SDS011;1939;48.720;9.166;2023-06-10T07:41:27;4.47;;;4.10;;
3847;SDS011;1939;48.720;9.166;2023-06-10T07:43:53;4.30;;;4.00;;
3847;SDS011;1939;48.720;9.166;2023-06-10T07:46:20;4.07;;;3.67;;
3847;SDS011;1939;48.720;9.166;2023-06-10T07:48:46;4.40;;;4.10;;
3847;SDS011;1939;48.720;9.166;2023-06-10T07:51:11;4.40;;;4.10;;
3847;SDS011;1939;48.720;9.166;2023-06-10T07:53:36;4.57;;;4.17;;
3847;SDS011;1939;48.720;9.166;2023-06-10T07:56:02;4.20;;;3.90;;
3847;SDS011;1939;48.720;9.166;2023-06-10T07:58:27;4.20;;;3.90;;
3847;SDS011;1939;48.720;9.166;2023-06-10T08:00:52;4.20;;;3.90;;
3847;SDS011;1939;48.720;9.166;2023-06-10T08:03:18;5.30;;;4.80;;
3847;SDS011;1939;48.720;9.166;2023-06-10T08:05:44;4.10;;;3.80;;
3847;SDS011;1939;48.720;9.166;2023-06-10T08:08:09;4.50;;;4.10;;
3847;SDS011;1939;48.720;9.166;2023-06-10T08:10:35;6.10;;;5.30;;
3847;SDS011;1939;48.720;9.166;2023-06-10T08:13:00;5.20;;;4.80;;
3847;SDS011;1939;48.720;9.166;2023-06-10T08:15:25;5.13;;;4.63;;
3847;SDS011;1939;48.720;9.166;2023-06-10T08:17:50;5.47;;;4.97;;
3847;SDS011;1939;48.720;9.166;2023-06-10T08:20:17;4.47;;;4.07;;
3847;SDS011;1939;48.720;9.166;2023-06-10T08:22:42;5.07;;;4.77;;
3847;SDS011;1939;48.720;9.166;2023-06-10T08:25:08;5.00;;;4.60;;
3847;SDS011;1939;48.720;9.166;2023-06-10T08:27:33;5.00;;;4.63;;
3847;SDS011;1939;48.720;9.166;2023-06-10T08:29:58;4.63;;;4.17;;
3847;SDS011;1939;48.720;9.166;2023-06-10T08:32:25;4.33;;;4.03;;
3847;SDS011;1939;48.720;9.166;2023-06-10T08:34:50;4.57;;;4.13;;
3847;SDS011;1939;48.720;9.166;2023-06-10T08:37:16;5.30;;;4.80;;
3847;SDS011;1939;48.720;9.166;2023-06-10T08:39:41;4.87;;;4.47;;
3847;SDS011;1939;48.720;9.166;2023-06-10T08:44:32;5.00;;;4.50;;
3847;SDS011;1939;48.720;9.166;2023-06-10T08:47:03;4.47;;;4.17;;
3847;SDS011;1939;48.720;9.166;2023-06-10T08:49:30;5.00;;;4.60;;
3847;SDS011;1939;48.720;9.166;2023-06-10T08:51:59;5.37;;;4.50;;
3847;SDS011;1939;48.720;9.166;2023-06-10T08:54:25;4.60;;;4.30;;
3847;SDS011;1939;48.720;9.166;2023-06-10T08:56:52;5.10;;;4.60;;
3847;SDS011;1939;48.720;9.166;2023-06-10T08:59:18;5.30;;;4.80;;
3847;SDS011;1939;48.720;9.166;2023-06-10T09:01:44;5.20;;;4.80;;
3847;SDS011;1939;48.720;9.166;2023-06-10T09:04:10;5.37;;;4.97;;
3847;SDS011;1939;48.720;9.166;2023-06-10T09:06:36;4.80;;;4.47;;
3847;SDS011;1939;48.720;9.166;2023-06-10T09:09:01;9.13;;;5.00;;
3847;SDS011;1939;48.720;9.166;2023-06-10T09:11:27;4.37;;;4.07;;
3847;SDS011;1939;48.720;9.166;2023-06-10T09:13:53;4.40;;;4.10;;
3847;SDS011;1939;48.720;9.166;2023-06-10T09:16:18;5.97;;;5.33;;
3847;SDS011;1939;48.720;9.166;2023-06-10T09:18:43;4.43;;;4.13;;
3847;SDS011;1939;48.720;9.166;2023-06-10T09:21:09;5.23;;;4.73;;
3847;SDS011;1939;48.720;9.166;2023-06-10T09:23:34;6.20;;;5.17;;
3847;SDS011;1939;48.720;9.166;2023-06-10T09:26:00;5.47;;;4.97;;
3847;SDS011;1939;48.720;9.166;2023-06-10T09:28:25;7.27;;;5.00;;
3847;SDS011;1939;48.720;9.166;2023-06-10T09:31:02;5.77;;;5.27;;
3847;SDS011;1939;48.720;9.166;2023-06-10T09:33:28;5.20;;;4.70;;
3847;SDS011;1939;48.720;9.166;2023-06-10T09:35:53;4.87;;;4.37;;
3847;SDS011;1939;48.720;9.166;2023-06-10T09:38:21;5.47;;;5.07;;
3847;SDS011;1939;48.720;9.166;2023-06-10T09:40:50;7.20;;;4.53;;
3847;SDS011;1939;48.720;9.166;2023-06-10T09:43:16;5.03;;;4.53;;
3847;SDS011;1939;48.720;9.166;2023-06-10T09:45:41;5.63;;;5.20;;
3847;SDS011;1939;48.720;9.166;2023-06-10T09:48:08;5.00;;;4.20;;
3847;SDS011;1939;48.720;9.166;2023-06-10T09:50:33;4.73;;;4.33;;
3847;SDS011;1939;48.720;9.166;2023-06-10T09:52:59;4.33;;;4.03;;
3847;SDS011;1939;48.720;9.166;2023-06-10T09:55:27;5.80;;;3.87;;
3847;SDS011;1939;48.720;9.166;2023-06-10T09:57:53;5.27;;;4.87;;
3847;SDS011;1939;48.720;9.166;2023-06-10T10:00:18;5.13;;;4.63;;
3847;SDS011;1939;48.720;9.166;2023-06-10T10:02:45;7.50;;;5.00;;
3847;SDS011;1939;48.720;9.166;2023-06-10T10:05:12;5.37;;;4.87;;
3847;SDS011;1939;48.720;9.166;2023-06-10T10:07:37;8.13;;;4.90;;
3847;SDS011;1939;48.720;9.166;2023-06-10T10:10:03;5.00;;;4.50;;
3847;SDS011;1939;48.720;9.166;2023-06-10T10:12:28;6.37;;;4.83;;
3847;SDS011;1939;48.720;9.166;2023-06-10T10:14:54;4.63;;;4.23;;
3847;SDS011;1939;48.720;9.166;2023-06-10T10:17:20;6.20;;;5.70;;
3847;SDS011;1939;48.720;9.166;2023-06-10T10:19:50;5.50;;;5.00;;
3847;SDS011;1939;48.720;9.166;2023-06-10T10:22:19;5.50;;;4.90;;
3847;SDS011;1939;48.720;9.166;2023-06-10T10:24:46;5.10;;;4.60;;
3847;SDS011;1939;48.720;9.166;2023-06-10T10:27:30;8.50;;;5.03;;
3847;SDS011;1939;48.720;9.166;2023-06-10T10:29:58;5.03;;;4.63;;
3847;SDS011;1939;48.720;9.166;2023-06-10T10:32:29;6.03;;;4.43;;
3847;SDS011;1939;48.720;9.166;2023-06-10T10:35:14;4.90;;;4.50;;
3847;SDS011;1939;48.720;9.166;2023-06-10T10:37:41;7.47;;;4.80;;
3847;SDS011;1939;48.720;9.166;2023-06-10T10:40:06;4.97;;;4.57;;
3847;SDS011;1939;48.720;9.166;2023-06-10T10:42:32;5.60;;;4.97;;
3847;SDS011;1939;48.720;9.166;2023-06-10T10:44:59;4.90;;;4.50;;
3847;SDS011;1939;48.720;9.166;2023-06-10T10:47:25;5.77;;;4.40;;
3847;SDS011;1939;48.720;9.166;2023-06-10T10:49:51;5.40;;;4.93;;
3847;SDS011;1939;48.720;9.166;2023-06-10T10:52:19;4.67;;;4.37;;
3847;SDS011;1939;48.720;9.166;2023-06-10T10:54:45;5.23;;;4.80;;
3847;SDS011;1939;48.720;9.166;2023-06-10T10:59:51;7.20;;;4.13;;
3847;SDS011;1939;48.720;9.166;2023-06-10T11:05:03;5.30;;;4.50;;
3847;SDS011;1939;48.720;9.166;2023-06-10T11:07:30;5.17;;;4.77;;
3847;SDS011;1939;48.720;9.166;2023-06-10T11:09:59;4.70;;;4.30;;
3847;SDS011;1939;48.720;9.166;2023-06-10T11:15:10;5.63;;;5.23;;
3847;SDS011;1939;48.720;9.166;2023-06-10T11:17:36;6.17;;;5.57;;
3847;SDS011;1939;48.720;9.166;2023-06-10T11:20:01;5.80;;;4.87;;
3847;SDS011;1939;48.720;9.166;2023-06-10T11:22:26;6.13;;;5.23;;
3847;SDS011;1939;48.720;9.166;2023-06-10T11:24:52;5.70;;;5.20;;
3847;SDS011;1939;48.720;9.166;2023-06-10T11:27:22;7.30;;;4.50;;
3847;SDS011;1939;48.720;9.166;2023-06-10T11:32:31;5.77;;;4.73;;
3847;SDS011;1939;48.720;9.166;2023-06-10T11:34:57;6.60;;;4.90;;
3847;SDS011;1939;48.720;9.166;2023-06-10T11:37:22;4.50;;;4.10;;
3847;SDS011;1939;48.720;9.166;2023-06-10T11:39:51;4.80;;;4.40;;
3847;SDS011;1939;48.720;9.166;2023-06-10T11:42:16;4.73;;;4.33;;
3847;SDS011;1939;48.720;9.166;2023-06-10T11:44:47;6.60;;;5.63;;
3847;SDS011;1939;48.720;9.166;2023-06-10T11:47:13;5.40;;;4.90;;
3847;SDS011;1939;48.720;9.166;2023-06-10T11:49:38;7.23;;;5.00;;
3847;SDS011;1939;48.720;9.166;2023-06-10T11:52:04;5.50;;;5.00;;
3847;SDS011;1939;48.720;9.166;2023-06-10T11:54:29;5.40;;;4.90;;
3847;SDS011;1939;48.720;9.166;2023-06-10T11:56:58;5.30;;;4.80;;
3847;SDS011;1939;48.720;9.166;2023-06-10T11:59:27;6.03;;;5.50;;
3847;SDS011;1939;48.720;9.166;2023-06-10T12:01:52;5.63;;;5.10;;
3847;SDS011;1939;48.720;9.166;2023-06-10T12:04:17;5.63;;;5.10;;
3847;SDS011;1939;48.720;9.166;2023-06-10T12:06:50;5.57;;;5.17;;
3847;SDS011;1939;48.720;9.166;2023-06-10T12:09:22;5.53;;;4.90;;
3847;SDS011;1939;48.720;9.166;2023-06-10T12:11:52;5.57;;;5.17;;
3847;SDS011;1939;48.720;9.166;2023-06-10T12:17:01;6.37;;;5.77;;
3847;SDS011;1939;48.720;9.166;2023-06-10T12:19:27;7.47;;;5.17;;
3847;SDS011;1939;48.720;9.166;2023-06-10T12:21:54;5.80;;;5.30;;
3847;SDS011;1939;48.720;9.166;2023-06-10T12:24:19;6.47;;;5.40;;
3847;SDS011;1939;48.720;9.166;2023-06-10T12:26:44;6.13;;;5.53;;
3847;SDS011;1939;48.720;9.166;2023-06-10T12:34:28;6.50;;;5.27;;
3847;SDS011;1939;48.720;9.166;2023-06-10T12:36:54;5.63;;;5.13;;
3847;SDS011;1939;48.720;9.166;2023-06-10T12:39:19;5.63;;;5.17;;
3847;SDS011;1939;48.720;9.166;2023-06-10T12:41:48;5.70;;;5.20;;
3847;SDS011;1939;48.720;9.166;2023-06-10T12:44:13;6.63;;;6.10;;
3847;SDS011;1939;48.720;9.166;2023-06-10T12:46:38;6.87;;;5.07;;
3847;SDS011;1939;48.720;9.166;2023-06-10T12:49:04;6.33;;;4.60;;
3847;SDS011;1939;48.720;9.166;2023-06-10T12:51:29;5.63;;;4.63;;
3847;SDS011;1939;48.720;9.166;2023-06-10T12:53:54;5.90;;;5.40;;
3847;SDS011;1939;48.720;9.166;2023-06-10T12:56:20;5.63;;;4.93;;
3847;SDS011;1939;48.720;9.166;2023-06-10T12:58:45;5.77;;;5.27;;
3847;SDS011;1939;48.720;9.166;2023-06-10T13:01:11;8.47;;;5.47;;
3847;SDS011;1939;48.720;9.166;2023-06-10T13:03:37;4.93;;;4.47;;
3847;SDS011;1939;48.720;9.166;2023-06-10T13:06:03;5.43;;;4.93;;
3847;SDS011;1939;48.720;9.166;2023-06-10T13:08:30;5.67;;;5.07;;
3847;SDS011;1939;48.720;9.166;2023-06-10T13:10:55;5.83;;;5.30;;
3847;SDS011;1939;48.720;9.166;2023-06-10T13:13:21;5.97;;;5.17;;
3847;SDS011;1939;48.720;9.166;2023-06-10T13:15:46;7.00;;;6.33;;
3847;SDS011;1939;48.720;9.166;2023-06-10T13:18:11;12.10;;;5.23;;
3847;SDS011;1939;48.720;9.166;2023-06-10T13:20:36;5.50;;;5.03;;
3847;SDS011;1939;48.720;9.166;2023-06-10T13:23:02;4.90;;;4.60;;
3847;SDS011;1939;48.720;9.166;2023-06-10T13:25:27;5.40;;;4.90;;
3847;SDS011;1939;48.720;9.166;2023-06-10T13:27:52;5.90;;;5.37;;
3847;SDS011;1939;48.720;9.166;2023-06-10T13:30:17;5.40;;;5.00;;
3847;SDS011;1939;48.720;9.166;2023-06-10T13:32:43;5.53;;;5.13;;
3847;SDS011;1939;48.720;9.166;2023-06-10T13:35:08;10.03;;;5.33;;
3847;SDS011;1939;48.720;9.166;2023-06-10T13:37:33;10.60;;;5.10;;
3847;SDS011;1939;48.720;9.166;2023-06-10T13:39:59;5.37;;;4.87;;
3847;SDS011;1939;48.720;9.166;2023-06-10T13:42:24;5.27;;;4.77;;
3847;SDS011;1939;48.720;9.166;2023-06-10T13:44:51;6.10;;;5.60;;
3847;SDS011;1939;48.720;9.166;2023-06-10T13:47:16;5.87;;;5.20;;
3847;SDS011;1939;48.720;9.166;2023-06-10T13:49:42;6.30;;;5.23;;
3847;SDS011;1939;48.720;9.166;2023-06-10T13:52:07;5.63;;;5.13;;
3847;SDS011;1939;48.720;9.166;2023-06-10T13:54:33;5.07;;;4.20;;
3847;SDS011;1939;48.720;9.166;2023-06-10T13:56:58;4.70;;;4.30;;
3847;SDS011;1939;48.720;9.166;2023-06-10T13:59:25;4.50;;;4.10;;
3847;SDS011;1939;48.720;9.166;2023-06-10T14:01:51;4.50;;;4.20;;
3847;SDS011;1939;48.720;9.166;2023-06-10T14:04:16;4.23;;;3.90;;
3847;SDS011;1939;48.720;9.166;2023-06-10T14:06:41;5.07;;;4.67;;
3847;SDS011;1939;48.720;9.166;2023-06-10T14:09:07;7.20;;;5.00;;
3847;SDS011;1939;48.720;9.166;2023-06-10T14:11:32;4.90;;;4.40;;
3847;SDS011;1939;48.720;9.166;2023-06-10T14:13:58;4.83;;;4.40;;
3847;SDS011;1939;48.720;9.166;2023-06-10T14:16:26;5.10;;;4.70;;
3847;SDS011;1939;48.720;9.166;2023-06-10T14:18:52;4.87;;;4.37;;
3847;SDS011;1939;48.720;9.166;2023-06-10T14:21:19;4.50;;;4.10;;
3847;SDS011;1939;48.720;9.166;2023-06-10T14:23:44;4.20;;;3.90;;
3847;SDS011;1939;48.720;9.166;2023-06-10T14:26:10;9.17;;;4.60;;
3847;SDS011;1939;48.720;9.166;2023-06-10T14:28:35;4.93;;;4.53;;
3847;SDS011;1939;48.720;9.166;2023-06-10T14:31:01;6.10;;;5.50;;
3847;SDS011;1939;48.720;9.166;2023-06-10T14:33:26;4.93;;;4.30;;
3847;SDS011;1939;48.720;9.166;2023-06-10T14:35:51;4.47;;;4.07;;
3847;SDS011;1939;48.720;9.166;2023-06-10T14:38:17;5.17;;;4.57;;
3847;SDS011;1939;48.720;9.166;2023-06-10T14:40:42;6.10;;;4.40;;
3847;SDS011;1939;48.720;9.166;2023-06-10T14:43:07;5.07;;;4.63;;
3847;SDS011;1939;48.720;9.166;2023-06-10T14:45:36;7.73;;;5.90;;
3847;SDS011;1939;48.720;9.166;2023-06-10T14:48:02;5.57;;;5.07;;
3847;SDS011;1939;48.720;9.166;2023-06-10T14:50:28;5.30;;;4.80;;
3847;SDS011;1939;48.720;9.166;2023-06-10T14:52:53;5.10;;;4.70;;
3847;SDS011;1939;48.720;9.166;2023-06-10T14:55:18;6.83;;;4.87;;
3847;SDS011;1939;48.720;9.166;2023-06-10T14:57:43;5.63;;;5.13;;
3847;SDS011;1939;48.720;9.166;2023-06-10T15:00:09;6.03;;;4.63;;
3847;SDS011;1939;48.720;9.166;2023-06-10T15:02:34;6.00;;;5.50;;
3847;SDS011;1939;48.720;9.166;2023-06-10T15:04:59;6.80;;;4.30;;
3847;SDS011;1939;48.720;9.166;2023-06-10T15:07:25;6.07;;;5.47;;
3847;SDS011;1939;48.720;9.166;2023-06-10T15:09:50;6.97;;;5.60;;
3847;SDS011;1939;48.720;9.166;2023-06-10T15:12:15;7.47;;;5.20;;
3847;SDS011;1939;48.720;9.166;2023-06-10T15:14:40;5.67;;;5.17;;
3847;SDS011;1939;48.720;9.166;2023-06-10T15:17:06;8.20;;;6.00;;
3847;SDS011;1939;48.720;9.166;2023-06-10T15:19:31;5.50;;;5.00;;
3847;SDS011;1939;48.720;9.166;2023-06-10T15:21:56;5.90;;;5.20;;
3847;SDS011;1939;48.720;9.166;2023-06-10T15:24:21;6.70;;;5.50;;
3847;SDS011;1939;48.720;9.166;2023-06-10T15:26:47;6.27;;;5.67;;
3847;SDS011;1939;48.720;9.166;2023-06-10T15:29:12;5.57;;;5.07;;
3847;SDS011;1939;48.720;9.166;2023-06-10T15:31:37;5.90;;;5.40;;